Oelwein, IA

12:13 AM CDT die 01o November, anno 2014 (GMT -0500)
Oelwein Municipal | Change Station
CLOSE
Current Station
Airport
Location: Oelwein,
Elevation: 1076 ft
Nearby Weather Stations

Elev 1076 ft 42.68 °N, 91.97 °W | Updated 18 minutes ago

Serena
Serena
25 °F
Feels Like 19 °F
N
5
Ventus Variabilis Ventus from Aquilo

Hodie
High -- | Low -- °F
--% Chance of Precip.
Yesterday
High -- | Low -- °F
Precip. -- in
7:41 AM 6:00 PM
Waxing Gibbous, 62% visible
Pressio 30.48 in
Visibilitas 10.0 milia passuum
Clouds Serena
Frigus Venti 19 °F
Frigus in quo Ros apparet 19 °F
Umor 80%
Rainfall 0.00 in
Snow Depth Not available.
UV 0 out of 12
Pollen .10 out of 12
Air Quality Not available.
Flu Activity Not available.
METAR KOLZ 010455Z AUTO 36004KT 10SM CLR M04/M07 A3048 RMK AO2

More Conditions Fewer Conditions

Pressio 30.48 in
Visibilitas 10.0 milia passuum
Clouds Serena
Frigus Venti 19 °F
Frigus in quo Ros apparet 19 °F
Umor 80%
Rainfall 0.00 in
Snow Depth Not available.
UV 0 out of 12
Pollen .10 out of 12
Air Quality Not available.
Flu Activity Not available.
METAR KOLZ 010455Z AUTO 36004KT 10SM CLR M04/M07 A3048 RMK AO2

More Conditions Fewer Conditions

10-Day Weather Forecast

Almanac

Astronomy

Nov. 01, 2014 Rise Set
Actual Time
Civil Twilight
Nautical Twilight
Astronomical Twilight
Moon
Length Of Visible Light
Length of Day
Tomorrow will be .
, % of the Moon is Illuminated

Today's Extremes

State Highs State Lows

Community

WunderPhotos

Upload Photos

1,766,857 photos uploaded!

WunderBlogs® & News

Nearby

Air Quality

  Air Quality AQ Index Pollutant
Not available.

Snow Depth

Station Depth Elevation

Earthquake Activity

City Distance Mag. Time & Date
Minimum magnitude displayed is 2.5.

Coastal Water Temperatures

Locus Calor

Nearby Weather Stations